sensor_id;sensor_type;location;lat;lon;timestamp;pressure;altitude;pressure_sealevel;temperature;humidity
75617;BME280;64200;55.426;37.758;2023-06-04T00:01:28;99479.97;;;7.06;71.01
75617;BME280;64200;55.426;37.758;2023-06-04T00:06:29;99480.09;;;7.02;70.98
75617;BME280;64200;55.426;37.758;2023-06-04T00:11:30;99490.81;;;7.00;70.96
75617;BME280;64200;55.426;37.758;2023-06-04T00:16:33;99484.19;;;6.97;70.46
75617;BME280;64200;55.426;37.758;2023-06-04T00:21:35;99488.72;;;6.91;70.57
75617;BME280;64200;55.426;37.758;2023-06-04T00:26:36;99497.72;;;6.95;70.69
75617;BME280;64200;55.426;37.758;2023-06-04T00:31:36;99493.19;;;6.89;70.55
75617;BME280;64200;55.426;37.758;2023-06-04T00:36:37;99504.50;;;6.81;70.45
75617;BME280;64200;55.426;37.758;2023-06-04T00:41:37;99495.50;;;6.77;70.77
75617;BME280;64200;55.426;37.758;2023-06-04T00:46:41;99507.28;;;6.81;70.55
75617;BME280;64200;55.426;37.758;2023-06-04T00:51:41;99514.69;;;6.84;70.68
75617;BME280;64200;55.426;37.758;2023-06-04T00:56:42;99513.34;;;6.76;70.46
75617;BME280;64200;55.426;37.758;2023-06-04T01:02:12;99512.91;;;6.78;70.24
75617;BME280;64200;55.426;37.758;2023-06-04T01:07:15;99514.91;;;6.64;70.38
75617;BME280;64200;55.426;37.758;2023-06-04T01:12:16;99517.91;;;6.70;70.24
75617;BME280;64200;55.426;37.758;2023-06-04T01:17:34;99525.13;;;6.80;70.02
75617;BME280;64200;55.426;37.758;2023-06-04T01:27:55;99537.88;;;6.65;69.68
75617;BME280;64200;55.426;37.758;2023-06-04T01:32:56;99535.19;;;6.61;70.15
75617;BME280;64200;55.426;37.758;2023-06-04T01:37:57;99539.53;;;6.62;69.78
75617;BME280;64200;55.426;37.758;2023-06-04T01:42:58;99548.06;;;6.68;69.84
75617;BME280;64200;55.426;37.758;2023-06-04T01:48:02;99546.50;;;6.67;69.73
75617;BME280;64200;55.426;37.758;2023-06-04T01:53:03;99558.03;;;6.65;69.62
75617;BME280;64200;55.426;37.758;2023-06-04T01:58:03;99563.47;;;6.69;69.54
75617;BME280;64200;55.426;37.758;2023-06-04T02:03:04;99576.56;;;6.68;69.45
75617;BME280;64200;55.426;37.758;2023-06-04T02:08:04;99581.56;;;6.74;69.56
75617;BME280;64200;55.426;37.758;2023-06-04T02:13:05;99584.44;;;6.83;69.68
75617;BME280;64200;55.426;37.758;2023-06-04T02:18:20;99581.25;;;6.84;69.08
75617;BME280;64200;55.426;37.758;2023-06-04T02:23:25;99582.00;;;6.85;69.20
75617;BME280;64200;55.426;37.758;2023-06-04T02:28:25;99603.09;;;6.95;69.09
75617;BME280;64200;55.426;37.758;2023-06-04T02:33:26;99602.44;;;7.04;69.43
75617;BME280;64200;55.426;37.758;2023-06-04T02:38:26;99613.75;;;7.10;68.81
75617;BME280;64200;55.426;37.758;2023-06-04T02:43:27;99617.75;;;7.21;68.77
75617;BME280;64200;55.426;37.758;2023-06-04T02:48:27;99621.75;;;7.33;68.64
75617;BME280;64200;55.426;37.758;2023-06-04T02:53:28;99633.41;;;7.41;68.25
75617;BME280;64200;55.426;37.758;2023-06-04T02:58:28;99637.94;;;7.35;67.97
75617;BME280;64200;55.426;37.758;2023-06-04T03:03:29;99646.38;;;7.44;67.92
75617;BME280;64200;55.426;37.758;2023-06-04T03:08:31;99654.59;;;7.61;68.39
75617;BME280;64200;55.426;37.758;2023-06-04T03:13:32;99656.59;;;7.73;67.80
75617;BME280;64200;55.426;37.758;2023-06-04T03:18:32;99666.44;;;7.87;67.18
75617;BME280;64200;55.426;37.758;2023-06-04T03:23:34;99675.00;;;7.80;67.24
75617;BME280;64200;55.426;37.758;2023-06-04T03:28:35;99694.00;;;7.81;67.49
75617;BME280;64200;55.426;37.758;2023-06-04T03:33:35;99699.75;;;7.87;66.94
75617;BME280;64200;55.426;37.758;2023-06-04T03:38:36;99691.22;;;7.94;66.79
75617;BME280;64200;55.426;37.758;2023-06-04T03:43:36;99698.56;;;8.23;66.12
75617;BME280;64200;55.426;37.758;2023-06-04T03:48:37;99698.31;;;8.43;66.19
75617;BME280;64200;55.426;37.758;2023-06-04T03:53:37;99709.06;;;8.54;65.71
75617;BME280;64200;55.426;37.758;2023-06-04T03:58:38;99710.25;;;8.66;65.58
75617;BME280;64200;55.426;37.758;2023-06-04T04:03:38;99719.31;;;8.79;65.16
75617;BME280;64200;55.426;37.758;2023-06-04T04:08:40;99724.41;;;8.81;65.06
75617;BME280;64200;55.426;37.758;2023-06-04T04:13:44;99728.91;;;9.00;64.95
75617;BME280;64200;55.426;37.758;2023-06-04T04:18:45;99724.66;;;9.18;65.13
75617;BME280;64200;55.426;37.758;2023-06-04T04:23:48;99725.25;;;9.35;64.67
75617;BME280;64200;55.426;37.758;2023-06-04T04:28:49;99737.94;;;9.36;63.82
75617;BME280;64200;55.426;37.758;2023-06-04T04:33:55;99734.28;;;9.48;63.86
75617;BME280;64200;55.426;37.758;2023-06-04T04:38:56;99733.31;;;9.73;64.52
75617;BME280;64200;55.426;37.758;2023-06-04T04:44:05;99733.44;;;9.70;63.13
75617;BME280;64200;55.426;37.758;2023-06-04T04:49:06;99740.97;;;9.91;63.75
75617;BME280;64200;55.426;37.758;2023-06-04T04:54:06;99750.03;;;10.23;62.18
75617;BME280;64200;55.426;37.758;2023-06-04T04:59:07;99737.22;;;10.44;61.72
75617;BME280;64200;55.426;37.758;2023-06-04T05:04:07;99747.38;;;10.29;61.17
75617;BME280;64200;55.426;37.758;2023-06-04T05:09:08;99762.81;;;10.52;61.94
75617;BME280;64200;55.426;37.758;2023-06-04T05:14:08;99758.47;;;10.51;60.79
75617;BME280;64200;55.426;37.758;2023-06-04T05:19:09;99763.75;;;10.77;60.22
75617;BME280;64200;55.426;37.758;2023-06-04T05:24:11;99759.72;;;10.87;60.23
75617;BME280;64200;55.426;37.758;2023-06-04T05:29:11;99755.31;;;11.32;58.96
75617;BME280;64200;55.426;37.758;2023-06-04T05:34:12;99765.91;;;11.28;58.36
75617;BME280;64200;55.426;37.758;2023-06-04T05:39:16;99765.38;;;11.48;58.82
75617;BME280;64200;55.426;37.758;2023-06-04T05:44:18;99763.34;;;11.91;57.91
75617;BME280;64200;55.426;37.758;2023-06-04T05:49:19;99761.59;;;12.37;57.33
75617;BME280;64200;55.426;37.758;2023-06-04T05:54:20;99771.81;;;12.88;56.73
75617;BME280;64200;55.426;37.758;2023-06-04T05:59:20;99768.78;;;13.31;54.31
75617;BME280;64200;55.426;37.758;2023-06-04T06:04:21;99780.78;;;13.46;51.63
75617;BME280;64200;55.426;37.758;2023-06-04T06:09:21;99784.47;;;12.98;51.52
75617;BME280;64200;55.426;37.758;2023-06-04T06:14:22;99779.13;;;13.40;51.71
75617;BME280;64200;55.426;37.758;2023-06-04T06:19:23;99771.28;;;13.74;48.73
75617;BME280;64200;55.426;37.758;2023-06-04T06:24:24;99779.22;;;14.26;48.32
75617;BME280;64200;55.426;37.758;2023-06-04T06:29:25;99784.22;;;14.57;47.47
75617;BME280;64200;55.426;37.758;2023-06-04T06:34:26;99788.59;;;14.22;47.28
75617;BME280;64200;55.426;37.758;2023-06-04T06:39:26;99784.56;;;14.44;46.92
75617;BME280;64200;55.426;37.758;2023-06-04T06:44:27;99782.03;;;14.46;44.93
75617;BME280;64200;55.426;37.758;2023-06-04T06:49:27;99779.22;;;15.08;45.64
75617;BME280;64200;55.426;37.758;2023-06-04T06:54:28;99793.78;;;15.59;43.82
75617;BME280;64200;55.426;37.758;2023-06-04T06:59:28;99791.44;;;15.84;42.56
75617;BME280;64200;55.426;37.758;2023-06-04T07:04:29;99788.53;;;15.20;42.69
75617;BME280;64200;55.426;37.758;2023-06-04T07:09:29;99792.25;;;14.64;44.58
75617;BME280;64200;55.426;37.758;2023-06-04T07:14:30;99806.00;;;16.14;43.37
75617;BME280;64200;55.426;37.758;2023-06-04T07:19:31;99794.47;;;16.61;40.39
75617;BME280;64200;55.426;37.758;2023-06-04T07:24:31;99794.19;;;16.53;40.89
75617;BME280;64200;55.426;37.758;2023-06-04T07:29:32;99798.84;;;16.19;41.31
75617;BME280;64200;55.426;37.758;2023-06-04T07:34:32;99817.19;;;17.00;37.92
75617;BME280;64200;55.426;37.758;2023-06-04T07:39:33;99802.50;;;17.73;37.34
75617;BME280;64200;55.426;37.758;2023-06-04T07:44:34;99811.47;;;17.66;36.51
75617;BME280;64200;55.426;37.758;2023-06-04T07:49:35;99820.56;;;19.27;36.85
75617;BME280;64200;55.426;37.758;2023-06-04T07:54:36;99810.00;;;18.86;31.97
75617;BME280;64200;55.426;37.758;2023-06-04T07:59:36;99803.38;;;19.25;32.63
75617;BME280;64200;55.426;37.758;2023-06-04T08:04:37;99814.28;;;21.95;28.25
75617;BME280;64200;55.426;37.758;2023-06-04T08:09:37;99809.88;;;18.45;30.66
75617;BME280;64200;55.426;37.758;2023-06-04T08:14:38;99808.09;;;17.56;33.33
75617;BME280;64200;55.426;37.758;2023-06-04T08:19:38;99814.94;;;21.55;28.32
75617;BME280;64200;55.426;37.758;2023-06-04T08:24:39;99818.78;;;22.50;27.02
75617;BME280;64200;55.426;37.758;2023-06-04T08:29:39;99815.63;;;22.53;24.99
75617;BME280;64200;55.426;37.758;2023-06-04T08:34:40;99812.38;;;19.24;28.93
75617;BME280;64200;55.426;37.758;2023-06-04T08:39:41;99812.47;;;17.86;29.21
75617;BME280;64200;55.426;37.758;2023-06-04T08:44:43;99809.84;;;17.26;30.97
75617;BME280;64200;55.426;37.758;2023-06-04T08:49:46;99817.84;;;17.50;31.30
75617;BME280;64200;55.426;37.758;2023-06-04T08:54:49;99824.50;;;18.43;30.63
75617;BME280;64200;55.426;37.758;2023-06-04T08:59:53;99824.13;;;18.81;30.36
75617;BME280;64200;55.426;37.758;2023-06-04T09:04:53;99824.44;;;22.76;26.44
75617;BME280;64200;55.426;37.758;2023-06-04T09:09:54;99834.28;;;20.50;26.61
75617;BME280;64200;55.426;37.758;2023-06-04T09:14:55;99820.44;;;18.21;29.42
75617;BME280;64200;55.426;37.758;2023-06-04T09:19:55;99828.06;;;17.36;30.82
75617;BME280;64200;55.426;37.758;2023-06-04T09:24:56;99826.25;;;17.16;31.70
75617;BME280;64200;55.426;37.758;2023-06-04T09:29:57;99827.72;;;17.00;32.51
75617;BME280;64200;55.426;37.758;2023-06-04T09:35:15;99828.34;;;19.21;30.18
75617;BME280;64200;55.426;37.758;2023-06-04T09:40:16;99832.03;;;18.99;28.95
75617;BME280;64200;55.426;37.758;2023-06-04T09:45:29;99827.59;;;18.34;30.47
75617;BME280;64200;55.426;37.758;2023-06-04T09:50:32;99836.16;;;17.00;31.51
75617;BME280;64200;55.426;37.758;2023-06-04T09:55:39;99836.09;;;16.40;33.55
75617;BME280;64200;55.426;37.758;2023-06-04T10:00:40;99832.63;;;16.62;33.66
75617;BME280;64200;55.426;37.758;2023-06-04T10:05:41;99830.06;;;17.13;32.60
75617;BME280;64200;55.426;37.758;2023-06-04T10:10:43;99832.63;;;18.86;30.23
75617;BME280;64200;55.426;37.758;2023-06-04T10:15:47;99843.59;;;20.76;27.80
75617;BME280;64200;55.426;37.758;2023-06-04T10:20:48;99836.56;;;21.39;25.83
75617;BME280;64200;55.426;37.758;2023-06-04T10:25:49;99840.88;;;20.34;26.21
75617;BME280;64200;55.426;37.758;2023-06-04T10:30:52;99834.50;;;19.20;25.79
75617;BME280;64200;55.426;37.758;2023-06-04T10:35:54;99836.47;;;21.64;24.61
75617;BME280;64200;55.426;37.758;2023-06-04T10:40:57;99831.28;;;23.21;22.66
75617;BME280;64200;55.426;37.758;2023-06-04T10:45:58;99834.31;;;22.89;23.40
75617;BME280;64200;55.426;37.758;2023-06-04T10:50:59;99842.75;;;25.73;18.15
75617;BME280;64200;55.426;37.758;2023-06-04T10:55:59;99827.78;;;28.30;16.07
75617;BME280;64200;55.426;37.758;2023-06-04T11:01:00;99837.50;;;26.23;18.38
75617;BME280;64200;55.426;37.758;2023-06-04T11:06:00;99842.75;;;25.73;17.75
75617;BME280;64200;55.426;37.758;2023-06-04T11:11:10;99831.13;;;23.40;20.91
75617;BME280;64200;55.426;37.758;2023-06-04T11:16:19;99837.13;;;22.49;22.67
75617;BME280;64200;55.426;37.758;2023-06-04T11:21:21;99827.25;;;25.37;19.54
75617;BME280;64200;55.426;37.758;2023-06-04T11:26:21;99827.50;;;29.40;15.07
75617;BME280;64200;55.426;37.758;2023-06-04T11:31:22;99821.25;;;25.80;16.75
75617;BME280;64200;55.426;37.758;2023-06-04T11:36:27;99824.28;;;25.58;17.42
75617;BME280;64200;55.426;37.758;2023-06-04T11:41:33;99835.41;;;22.13;21.66
75617;BME280;64200;55.426;37.758;2023-06-04T11:46:35;99831.09;;;23.06;22.06
75617;BME280;64200;55.426;37.758;2023-06-04T11:51:45;99833.75;;;25.01;20.27
75617;BME280;64200;55.426;37.758;2023-06-04T11:56:48;99839.84;;;25.42;18.68
75617;BME280;64200;55.426;37.758;2023-06-04T12:01:49;99833.44;;;23.42;20.24
75617;BME280;64200;55.426;37.758;2023-06-04T12:06:52;99835.84;;;21.71;21.32
75617;BME280;64200;55.426;37.758;2023-06-04T12:12:04;99829.94;;;20.93;22.58
75617;BME280;64200;55.426;37.758;2023-06-04T12:17:08;99823.59;;;19.77;23.70
75617;BME280;64200;55.426;37.758;2023-06-04T12:22:09;99826.31;;;20.24;24.14
75617;BME280;64200;55.426;37.758;2023-06-04T12:27:09;99825.66;;;19.40;23.96
75617;BME280;64200;55.426;37.758;2023-06-04T12:32:11;99823.31;;;18.97;25.87
75617;BME280;64200;55.426;37.758;2023-06-04T12:37:12;99833.00;;;18.37;26.73
75617;BME280;64200;55.426;37.758;2023-06-04T12:42:12;99826.09;;;18.04;26.79
75617;BME280;64200;55.426;37.758;2023-06-04T12:47:13;99841.19;;;17.67;27.88
75617;BME280;64200;55.426;37.758;2023-06-04T12:52:16;99832.44;;;17.37;28.40
75617;BME280;64200;55.426;37.758;2023-06-04T12:57:17;99837.50;;;17.16;29.08
75617;BME280;64200;55.426;37.758;2023-06-04T13:02:18;99825.56;;;17.89;28.72
75617;BME280;64200;55.426;37.758;2023-06-04T13:07:18;99823.50;;;18.18;28.07
75617;BME280;64200;55.426;37.758;2023-06-04T13:12:19;99814.50;;;18.31;27.49
75617;BME280;64200;55.426;37.758;2023-06-04T13:17:19;99820.16;;;18.25;27.82
75617;BME280;64200;55.426;37.758;2023-06-04T13:22:20;99813.47;;;18.34;27.90
75617;BME280;64200;55.426;37.758;2023-06-04T13:27:20;99816.75;;;18.55;27.07
75617;BME280;64200;55.426;37.758;2023-06-04T13:32:21;99813.94;;;18.55;27.57
75617;BME280;64200;55.426;37.758;2023-06-04T13:37:21;99812.63;;;18.61;27.73
75617;BME280;64200;55.426;37.758;2023-06-04T13:42:22;99808.97;;;18.84;27.12
75617;BME280;64200;55.426;37.758;2023-06-04T13:47:23;99817.88;;;17.89;27.36
75617;BME280;64200;55.426;37.758;2023-06-04T13:52:23;99812.22;;;17.61;28.22
75617;BME280;64200;55.426;37.758;2023-06-04T13:57:25;99819.13;;;17.43;28.50
75617;BME280;64200;55.426;37.758;2023-06-04T14:02:25;99819.16;;;17.83;28.56
75617;BME280;64200;55.426;37.758;2023-06-04T14:07:26;99819.09;;;17.37;28.88
75617;BME280;64200;55.426;37.758;2023-06-04T14:12:27;99824.00;;;17.43;29.11
75617;BME280;64200;55.426;37.758;2023-06-04T14:17:27;99801.69;;;17.50;28.73
75617;BME280;64200;55.426;37.758;2023-06-04T14:22:28;99813.69;;;17.23;28.36
75617;BME280;64200;55.426;37.758;2023-06-04T14:27:28;99805.66;;;16.93;28.15
75617;BME280;64200;55.426;37.758;2023-06-04T14:32:29;99809.66;;;16.75;29.22
75617;BME280;64200;55.426;37.758;2023-06-04T14:37:30;99818.44;;;16.88;29.51
75617;BME280;64200;55.426;37.758;2023-06-04T14:42:30;99818.94;;;16.86;29.45
75617;BME280;64200;55.426;37.758;2023-06-04T14:47:31;99804.09;;;16.92;29.74
75617;BME280;64200;55.426;37.758;2023-06-04T14:52:31;99799.88;;;16.64;30.13
75617;BME280;64200;55.426;37.758;2023-06-04T14:57:32;99802.41;;;16.62;30.43
75617;BME280;64200;55.426;37.758;2023-06-04T15:02:32;99799.53;;;16.45;31.37
75617;BME280;64200;55.426;37.758;2023-06-04T15:07:33;99798.25;;;16.46;31.05
75617;BME280;64200;55.426;37.758;2023-06-04T15:12:33;99790.13;;;16.16;31.65
75617;BME280;64200;55.426;37.758;2023-06-04T15:17:36;99795.69;;;16.48;31.46
75617;BME280;64200;55.426;37.758;2023-06-04T15:22:37;99791.84;;;16.46;31.40
75617;BME280;64200;55.426;37.758;2023-06-04T15:27:38;99796.34;;;16.26;32.38
75617;BME280;64200;55.426;37.758;2023-06-04T15:32:38;99784.50;;;15.79;31.53
75617;BME280;64200;55.426;37.758;2023-06-04T15:37:39;99784.50;;;15.53;32.18
75617;BME280;64200;55.426;37.758;2023-06-04T15:42:40;99789.38;;;15.52;32.84
75617;BME280;64200;55.426;37.758;2023-06-04T15:47:40;99789.09;;;15.50;32.65
75617;BME280;64200;55.426;37.758;2023-06-04T15:52:41;99775.81;;;15.51;32.34
75617;BME280;64200;55.426;37.758;2023-06-04T15:57:41;99778.44;;;15.60;32.13
75617;BME280;64200;55.426;37.758;2023-06-04T16:02:42;99777.31;;;15.46;32.55
75617;BME280;64200;55.426;37.758;2023-06-04T16:07:42;99780.44;;;15.27;33.14
75617;BME280;64200;55.426;37.758;2023-06-04T16:12:43;99778.56;;;15.19;33.44
75617;BME280;64200;55.426;37.758;2023-06-04T16:17:43;99782.25;;;15.31;33.30
75617;BME280;64200;55.426;37.758;2023-06-04T16:22:48;99769.72;;;15.05;33.76
75617;BME280;64200;55.426;37.758;2023-06-04T16:27:48;99780.97;;;15.05;33.67
75617;BME280;64200;55.426;37.758;2023-06-04T16:32:49;99773.28;;;15.00;34.28
75617;BME280;64200;55.426;37.758;2023-06-04T16:37:50;99774.53;;;14.99;34.35
75617;BME280;64200;55.426;37.758;2023-06-04T16:42:51;99764.44;;;14.87;34.57
75617;BME280;64200;55.426;37.758;2023-06-04T16:47:52;99768.56;;;14.91;34.83
75617;BME280;64200;55.426;37.758;2023-06-04T16:52:52;99772.56;;;14.85;35.13
75617;BME280;64200;55.426;37.758;2023-06-04T16:57:53;99778.63;;;14.78;35.09
75617;BME280;64200;55.426;37.758;2023-06-04T17:02:58;99782.09;;;14.52;36.00
75617;BME280;64200;55.426;37.758;2023-06-04T17:07:58;99784.34;;;14.27;36.63
75617;BME280;64200;55.426;37.758;2023-06-04T17:13:00;99778.69;;;14.07;36.77
75617;BME280;64200;55.426;37.758;2023-06-04T17:18:00;99777.94;;;13.91;37.43
75617;BME280;64200;55.426;37.758;2023-06-04T17:23:01;99779.88;;;13.85;37.99
75617;BME280;64200;55.426;37.758;2023-06-04T17:28:01;99780.00;;;13.76;38.54
75617;BME280;64200;55.426;37.758;2023-06-04T17:33:02;99775.94;;;13.62;38.87
75617;BME280;64200;55.426;37.758;2023-06-04T17:38:03;99781.38;;;13.50;39.63
75617;BME280;64200;55.426;37.758;2023-06-04T17:43:04;99785.75;;;13.27;40.44
75617;BME280;64200;55.426;37.758;2023-06-04T17:48:04;99786.44;;;13.07;40.50
75617;BME280;64200;55.426;37.758;2023-06-04T17:53:05;99791.81;;;12.96;40.97
75617;BME280;64200;55.426;37.758;2023-06-04T17:58:06;99788.59;;;12.88;41.46
75617;BME280;64200;55.426;37.758;2023-06-04T18:03:06;99785.38;;;12.80;41.25
75617;BME280;64200;55.426;37.758;2023-06-04T18:08:11;99789.31;;;12.74;41.10
75617;BME280;64200;55.426;37.758;2023-06-04T18:13:11;99780.53;;;12.66;41.58
75617;BME280;64200;55.426;37.758;2023-06-04T18:18:12;99778.00;;;12.68;41.60
75617;BME280;64200;55.426;37.758;2023-06-04T18:23:13;99771.72;;;12.58;42.76
75617;BME280;64200;55.426;37.758;2023-06-04T18:28:14;99771.16;;;12.45;43.41
75617;BME280;64200;55.426;37.758;2023-06-04T18:33:15;99776.75;;;12.45;43.05
75617;BME280;64200;55.426;37.758;2023-06-04T18:38:16;99778.84;;;12.35;43.79
75617;BME280;64200;55.426;37.758;2023-06-04T18:43:16;99770.22;;;12.24;43.66
75617;BME280;64200;55.426;37.758;2023-06-04T18:48:17;99783.50;;;12.14;44.28
75617;BME280;64200;55.426;37.758;2023-06-04T18:53:18;99768.63;;;11.99;44.66
75617;BME280;64200;55.426;37.758;2023-06-04T18:58:18;99784.34;;;11.87;45.65
75617;BME280;64200;55.426;37.758;2023-06-04T19:03:19;99783.91;;;11.79;45.73
75617;BME280;64200;55.426;37.758;2023-06-04T19:08:20;99776.84;;;11.59;46.38
75617;BME280;64200;55.426;37.758;2023-06-04T19:13:21;99780.56;;;11.47;46.74
75617;BME280;64200;55.426;37.758;2023-06-04T19:18:21;99780.59;;;11.38;46.45
75617;BME280;64200;55.426;37.758;2023-06-04T19:23:22;99775.19;;;11.34;46.48
75617;BME280;64200;55.426;37.758;2023-06-04T19:28:22;99778.91;;;11.31;47.09
75617;BME280;64200;55.426;37.758;2023-06-04T19:33:23;99773.47;;;11.28;47.50
75617;BME280;64200;55.426;37.758;2023-06-04T19:38:24;99770.41;;;10.98;48.09
75617;BME280;64200;55.426;37.758;2023-06-04T19:43:25;99776.00;;;10.98;48.25
75617;BME280;64200;55.426;37.758;2023-06-04T19:48:26;99771.97;;;10.89;48.05
75617;BME280;64200;55.426;37.758;2023-06-04T19:53:28;99775.09;;;10.82;48.49
75617;BME280;64200;55.426;37.758;2023-06-04T19:58:29;99771.81;;;10.84;48.33
75617;BME280;64200;55.426;37.758;2023-06-04T20:03:29;99769.94;;;10.71;49.21
75617;BME280;64200;55.426;37.758;2023-06-04T20:08:32;99770.25;;;10.64;49.70
75617;BME280;64200;55.426;37.758;2023-06-04T20:13:33;99773.38;;;10.57;49.49
75617;BME280;64200;55.426;37.758;2023-06-04T20:18:33;99765.59;;;10.43;50.22
75617;BME280;64200;55.426;37.758;2023-06-04T20:23:35;99760.00;;;10.33;50.81
75617;BME280;64200;55.426;37.758;2023-06-04T20:28:35;99766.31;;;10.25;50.84
75617;BME280;64200;55.426;37.758;2023-06-04T20:33:36;99762.25;;;10.16;51.75
75617;BME280;64200;55.426;37.758;2023-06-04T20:38:37;99767.16;;;10.03;52.53
75617;BME280;64200;55.426;37.758;2023-06-04T20:43:45;99754.41;;;9.83;52.85
75617;BME280;64200;55.426;37.758;2023-06-04T20:48:46;99769.28;;;9.90;53.20
75617;BME280;64200;55.426;37.758;2023-06-04T20:53:48;99763.34;;;9.78;53.31
75617;BME280;64200;55.426;37.758;2023-06-04T20:58:48;99758.50;;;9.70;53.83
75617;BME280;64200;55.426;37.758;2023-06-04T21:03:49;99748.28;;;9.66;53.77
75617;BME280;64200;55.426;37.758;2023-06-04T21:08:49;99756.81;;;9.72;53.46
75617;BME280;64200;55.426;37.758;2023-06-04T21:13:50;99749.53;;;9.65;53.53
75617;BME280;64200;55.426;37.758;2023-06-04T21:18:51;99759.41;;;9.66;53.92
75617;BME280;64200;55.426;37.758;2023-06-04T21:23:51;99762.50;;;9.59;54.18
75617;BME280;64200;55.426;37.758;2023-06-04T21:28:52;99746.19;;;9.48;54.97
75617;BME280;64200;55.426;37.758;2023-06-04T21:33:52;99740.03;;;9.54;53.83
75617;BME280;64200;55.426;37.758;2023-06-04T21:38:53;99743.81;;;9.38;54.92
75617;BME280;64200;55.426;37.758;2023-06-04T21:43:53;99746.47;;;9.19;55.82
75617;BME280;64200;55.426;37.758;2023-06-04T21:48:54;99746.94;;;9.18;55.77
75617;BME280;64200;55.426;37.758;2023-06-04T21:53:54;99748.44;;;9.09;56.37
75617;BME280;64200;55.426;37.758;2023-06-04T21:58:55;99745.59;;;9.00;56.77
75617;BME280;64200;55.426;37.758;2023-06-04T22:03:56;99749.72;;;8.95;57.08
75617;BME280;64200;55.426;37.758;2023-06-04T22:08:56;99748.09;;;8.85;57.47
75617;BME280;64200;55.426;37.758;2023-06-04T22:13:57;99759.59;;;8.74;58.11
75617;BME280;64200;55.426;37.758;2023-06-04T22:18:57;99750.16;;;8.72;58.24
75617;BME280;64200;55.426;37.758;2023-06-04T22:23:58;99738.75;;;8.57;58.88
75617;BME280;64200;55.426;37.758;2023-06-04T22:28:58;99738.66;;;8.60;58.82
75617;BME280;64200;55.426;37.758;2023-06-04T22:33:59;99739.56;;;8.57;59.20
75617;BME280;64200;55.426;37.758;2023-06-04T22:39:00;99737.78;;;8.51;59.60
75617;BME280;64200;55.426;37.758;2023-06-04T22:44:00;99735.13;;;8.47;59.34
75617;BME280;64200;55.426;37.758;2023-06-04T22:49:01;99736.88;;;8.54;59.02
75617;BME280;64200;55.426;37.758;2023-06-04T22:54:01;99733.19;;;8.57;58.79
75617;BME280;64200;55.426;37.758;2023-06-04T22:59:02;99739.66;;;8.54;59.27
75617;BME280;64200;55.426;37.758;2023-06-04T23:04:02;99736.03;;;8.44;59.49
75617;BME280;64200;55.426;37.758;2023-06-04T23:09:03;99733.25;;;8.44;59.63
75617;BME280;64200;55.426;37.758;2023-06-04T23:14:03;99727.16;;;8.23;60.49
75617;BME280;64200;55.426;37.758;2023-06-04T23:19:04;99728.38;;;8.22;60.49
75617;BME280;64200;55.426;37.758;2023-06-04T23:24:05;99737.94;;;8.21;60.77
75617;BME280;64200;55.426;37.758;2023-06-04T23:29:07;99730.94;;;8.17;60.81
75617;BME280;64200;55.426;37.758;2023-06-04T23:34:07;99743.38;;;8.25;60.47
75617;BME280;64200;55.426;37.758;2023-06-04T23:39:08;99734.16;;;8.15;61.12
75617;BME280;64200;55.426;37.758;2023-06-04T23:44:09;99725.53;;;8.00;61.45
75617;BME280;64200;55.426;37.758;2023-06-04T23:49:11;99727.19;;;7.98;62.00
75617;BME280;64200;55.426;37.758;2023-06-04T23:54:11;99716.06;;;7.98;61.99
75617;BME280;64200;55.426;37.758;2023-06-04T23:59:12;99720.41;;;7.99;61.71
